Time;durP1;ratioP1;P1;durP2;ratioP2;P2;SDS_P1;SDS_P2;PMS_P1;PMS_P2;Temp;Humidity;BMP_temperature;BMP_pressure;BME280_temperature;BME280_humidity;BME280_pressure;Samples;Min_cycle;Max_cycle;Signal;HPM_P1;HPM_P2
2021/06/01 00:01:49;;;;;;;13.98;8.80;;;;;;;10.17;85.55;94492.64;1713279;82;21000;-54
2021/06/01 00:04:17;;;;;;;12.33;8.63;;;;;;;10.18;85.39;94484.55;1720236;81;21154;-53
2021/06/01 00:06:44;;;;;;;13.45;8.15;;;;;;;10.11;85.21;94487.55;1724911;81;21045;-53
2021/06/01 00:09:17;;;;;;;9.85;8.10;;;;;;;10.05;85.43;94486.61;1705112;81;21129;-54
2021/06/01 00:11:47;;;;;;;16.67;9.20;;;;;;;10.02;85.38;94482.77;1693210;83;21736;-53
2021/06/01 00:14:14;;;;;;;12.50;9.33;;;;;;;9.99;85.53;94485.64;1731187;81;21011;-53
2021/06/01 00:16:41;;;;;;;11.57;8.78;;;;;;;10.00;85.77;94484.42;1714990;82;21083;-53
2021/06/01 00:19:08;;;;;;;12.88;9.28;;;;;;;10.06;86.01;94481.27;1710868;82;21106;-54
2021/06/01 00:21:38;;;;;;;13.55;9.30;;;;;;;10.13;85.86;94482.39;1713922;81;21486;-53
2021/06/01 00:24:06;;;;;;;9.58;8.58;;;;;;;10.15;85.47;94477.96;1733798;82;21196;-52
2021/06/01 00:26:33;;;;;;;11.08;8.43;;;;;;;10.17;85.56;94472.03;1731869;81;20995;-52
2021/06/01 00:29:01;;;;;;;9.68;8.40;;;;;;;10.23;85.21;94481.99;1728589;81;21109;-54
2021/06/01 00:31:28;;;;;;;14.30;8.35;;;;;;;10.24;84.93;94479.99;1717788;82;21121;-53
2021/06/01 00:33:55;;;;;;;12.88;8.50;;;;;;;10.22;84.68;94482.42;1712407;82;21158;-53
2021/06/01 00:36:22;;;;;;;15.18;9.03;;;;;;;10.20;84.74;94476.62;1711625;82;21074;-53
2021/06/01 00:38:48;;;;;;;9.45;8.15;;;;;;;10.23;84.98;94481.21;1717433;82;21038;-52
2021/06/01 00:41:16;;;;;;;10.55;8.58;;;;;;;10.27;84.77;94479.09;1703400;82;22219;-53
2021/06/01 00:43:44;;;;;;;12.78;7.70;;;;;;;10.27;84.67;94476.34;1721550;81;21085;-53
2021/06/01 00:46:11;;;;;;;9.18;8.28;;;;;;;10.29;84.35;94474.68;1721145;81;21095;-53
2021/06/01 00:48:38;;;;;;;9.50;8.50;;;;;;;10.28;84.23;94470.99;1728945;82;20986;-54
2021/06/01 00:51:05;;;;;;;12.07;8.78;;;;;;;10.25;84.22;94480.14;1714653;82;21145;-54
2021/06/01 00:53:33;;;;;;;11.03;7.53;;;;;;;10.23;84.43;94481.21;1714690;81;21777;-52
2021/06/01 00:55:59;;;;;;;9.35;7.28;;;;;;;10.27;84.19;94479.86;1733853;82;21565;-51
2021/06/01 00:58:26;;;;;;;8.08;7.10;;;;;;;10.27;83.85;94477.71;1710093;82;21024;-53
2021/06/01 01:03:23;;;;;;;9.10;7.50;;;;;;;10.21;84.24;94478.15;1702057;82;21041;-53
2021/06/01 01:05:51;;;;;;;11.65;8.15;;;;;;;10.23;84.50;94472.96;1738887;82;21141;-52
2021/06/01 01:11:21;;;;;;;13.55;8.45;;;;;;;10.25;84.51;94473.28;1735692;81;21012;-52
2021/06/01 01:13:59;;;;;;;11.30;8.10;;;;;;;10.26;84.39;94474.80;1717150;82;21200;-52
2021/06/01 01:16:28;;;;;;;10.50;8.48;;;;;;;10.20;84.47;94477.37;1706779;81;21065;-52
2021/06/01 01:19:18;;;;;;;8.98;7.40;;;;;;;10.18;84.89;94468.81;1712736;82;21735;-52
2021/06/01 01:21:53;;;;;;;10.08;8.78;;;;;;;10.17;84.64;94461.03;1721747;81;21010;-52
2021/06/01 01:24:48;;;;;;;8.93;7.70;;;;;;;10.15;84.87;94466.22;1720717;82;21021;-52
2021/06/01 01:28:02;;;;;;;9.90;8.00;;;;;;;10.17;85.11;94466.53;1716816;82;21125;-53
2021/06/01 01:30:44;;;;;;;9.80;7.87;;;;;;;10.20;85.31;94464.25;1726894;81;21482;-52
2021/06/01 01:33:24;;;;;;;9.88;8.23;;;;;;;10.19;85.17;94464.84;1722948;82;21101;-52
2021/06/01 01:35:57;;;;;;;9.78;7.85;;;;;;;10.21;85.26;94465.19;1716881;82;21485;-52
2021/06/01 01:38:24;;;;;;;8.80;7.90;;;;;;;10.29;85.39;94461.53;1720980;81;21174;-53
2021/06/01 01:40:52;;;;;;;11.10;8.35;;;;;;;10.33;85.10;94460.80;1709562;81;21588;-53
2021/06/01 01:43:21;;;;;;;8.55;7.65;;;;;;;10.36;85.19;94469.52;1711752;81;21501;-53
2021/06/01 01:45:50;;;;;;;10.85;8.73;;;;;;;10.38;84.86;94469.20;1719402;81;21096;-53
2021/06/01 01:51:13;;;;;;;8.75;7.85;;;;;;;10.39;84.77;94470.73;1722755;82;21653;-53
2021/06/01 01:53:44;;;;;;;9.45;7.78;;;;;;;10.38;84.67;94466.45;1730591;81;21141;-52
2021/06/01 01:56:11;;;;;;;8.20;7.40;;;;;;;10.40;84.46;94464.64;1732669;82;21114;-53
2021/06/01 01:58:38;;;;;;;8.80;7.65;;;;;;;10.33;84.41;94462.17;1712820;81;21081;-53
2021/06/01 02:01:05;;;;;;;12.68;7.75;;;;;;;10.28;84.39;94458.63;1741852;82;21014;-52
2021/06/01 02:03:31;;;;;;;24.47;16.00;;;;;;;10.26;84.49;94463.81;1714182;82;21203;-52
2021/06/01 02:05:58;;;;;;;13.00;8.70;;;;;;;10.25;84.68;94456.78;1713052;82;20987;-53
2021/06/01 02:08:26;;;;;;;15.85;8.28;;;;;;;10.22;84.72;94454.94;1692599;82;21027;-52
2021/06/01 02:10:54;;;;;;;10.15;7.35;;;;;;;10.17;85.00;94450.03;1707495;82;21093;-52
2021/06/01 02:13:20;;;;;;;8.18;7.20;;;;;;;10.16;84.91;94452.63;1718050;82;21117;-52
2021/06/01 02:15:47;;;;;;;7.97;7.20;;;;;;;10.15;85.05;94453.22;1724752;82;21505;-53
2021/06/01 02:18:16;;;;;;;13.22;7.83;;;;;;;10.17;84.96;94444.54;1716767;82;21023;-53
2021/06/01 02:20:44;;;;;;;16.77;8.98;;;;;;;10.14;85.22;94442.08;1718035;82;20983;-52
2021/06/01 02:26:03;;;;;;;12.40;7.42;;;;;;;10.11;85.39;94442.20;1716680;81;21326;-52
2021/06/01 02:28:41;;;;;;;9.60;7.35;;;;;;;10.08;85.34;94439.77;1707917;81;21213;-53
2021/06/01 02:31:13;;;;;;;8.43;7.12;;;;;;;10.05;85.72;94437.92;1721054;82;21023;-52
2021/06/01 02:33:43;;;;;;;9.50;7.90;;;;;;;10.07;85.98;94441.58;1720573;82;21493;-52
2021/06/01 02:36:09;;;;;;;9.70;7.50;;;;;;;10.07;85.82;94445.70;1717131;81;21089;-52
2021/06/01 02:38:36;;;;;;;13.43;7.72;;;;;;;10.06;85.94;94446.92;1671491;82;20983;-51
2021/06/01 02:41:04;;;;;;;9.28;7.28;;;;;;;10.02;85.96;94440.17;1714395;82;21035;-52
2021/06/01 02:43:31;;;;;;;11.50;7.30;;;;;;;9.97;86.17;94444.11;1728886;81;21114;-53
2021/06/01 02:45:58;;;;;;;10.72;7.12;;;;;;;9.93;86.33;94444.83;1722621;81;21104;-51
2021/06/01 02:48:25;;;;;;;10.00;6.72;;;;;;;9.89;86.40;94442.23;1703687;82;21549;-52
2021/06/01 02:50:54;;;;;;;14.23;6.42;;;;;;;9.87;86.40;94440.55;1701949;82;21062;-52
2021/06/01 02:53:21;;;;;;;7.05;6.15;;;;;;;9.94;86.45;94450.48;1716684;81;21125;-54
2021/06/01 02:55:49;;;;;;;9.03;6.28;;;;;;;9.97;86.46;94448.98;1725413;82;21026;-53
2021/06/01 02:58:16;;;;;;;7.65;5.78;;;;;;;9.98;86.42;94442.89;1737930;81;21026;-52
2021/06/01 03:00:43;;;;;;;11.28;5.97;;;;;;;9.98;86.31;94441.52;1720027;81;21118;-52
2021/06/01 03:03:13;;;;;;;7.00;6.30;;;;;;;9.95;86.11;94441.05;1728203;82;21117;-53
2021/06/01 03:05:41;;;;;;;7.30;6.55;;;;;;;9.95;86.18;94441.80;1720328;82;21515;-52
2021/06/01 03:08:16;;;;;;;7.17;6.47;;;;;;;9.98;86.40;94440.14;1723725;81;21010;-53
2021/06/01 03:10:43;;;;;;;11.15;6.30;;;;;;;10.03;86.42;94436.83;1742244;81;21018;-55
2021/06/01 03:13:09;;;;;;;8.20;6.25;;;;;;;10.06;86.20;94430.42;1741180;82;21033;-57
2021/06/01 03:15:36;;;;;;;6.53;5.78;;;;;;;10.06;86.13;94438.08;1721170;81;21086;-56
2021/06/01 03:18:03;;;;;;;7.97;6.20;;;;;;;10.04;85.93;94441.11;1733558;81;21070;-56
2021/06/01 03:20:30;;;;;;;10.05;6.67;;;;;;;10.04;86.07;94446.61;1701186;82;21522;-56
2021/06/01 03:22:56;;;;;;;10.35;7.70;;;;;;;10.05;86.20;94444.02;1724707;82;21162;-55
2021/06/01 03:25:23;;;;;;;19.52;8.68;;;;;;;10.07;86.61;94445.11;1724337;82;21089;-55
2021/06/01 03:27:50;;;;;;;7.22;6.50;;;;;;;10.14;86.56;94446.82;1738819;82;21553;-55
2021/06/01 03:30:17;;;;;;;10.28;7.25;;;;;;;10.20;86.53;94449.12;1726705;81;21022;-52
2021/06/01 03:32:44;;;;;;;8.33;6.95;;;;;;;10.21;86.39;94445.16;1740690;81;21081;-54
2021/06/01 03:35:11;;;;;;;9.58;7.30;;;;;;;10.25;86.77;94444.41;1711777;82;21094;-53
2021/06/01 03:37:38;;;;;;;9.43;7.70;;;;;;;10.30;86.67;94447.94;1715008;82;21100;-54
2021/06/01 03:40:06;;;;;;;8.95;7.33;;;;;;;10.34;86.63;94441.09;1709638;82;21139;-54
2021/06/01 03:42:33;;;;;;;8.03;7.22;;;;;;;10.36;86.42;94443.40;1713430;81;21058;-54
2021/06/01 03:44:59;;;;;;;9.15;8.25;;;;;;;10.33;86.15;94438.80;1729741;82;21106;-54
2021/06/01 03:47:27;;;;;;;8.85;7.95;;;;;;;10.33;86.35;94438.80;1741874;81;21006;-53
2021/06/01 03:49:55;;;;;;;8.83;7.90;;;;;;;10.35;86.27;94436.37;1720971;82;21102;-54
2021/06/01 03:52:23;;;;;;;8.20;7.40;;;;;;;10.40;86.53;94438.52;1740570;82;21110;-53
2021/06/01 03:54:49;;;;;;;10.58;6.95;;;;;;;10.47;86.35;94435.47;1728563;81;21074;-53
2021/06/01 03:57:16;;;;;;;8.28;6.40;;;;;;;10.49;86.11;94444.06;1713712;82;21025;-53
2021/06/01 03:59:43;;;;;;;9.18;8.28;;;;;;;10.48;86.10;94446.03;1718938;82;21037;-53
2021/06/01 04:02:09;;;;;;;7.62;6.70;;;;;;;10.49;86.06;94442.69;1708152;81;21128;-54
2021/06/01 04:04:36;;;;;;;8.68;7.05;;;;;;;10.43;85.76;94443.11;1703533;82;21043;-53
2021/06/01 04:07:04;;;;;;;7.75;6.15;;;;;;;10.38;85.95;94451.95;1727409;81;21078;-54
2021/06/01 04:09:31;;;;;;;11.90;6.33;;;;;;;10.41;85.63;94460.08;1720095;82;21125;-53
2021/06/01 04:11:58;;;;;;;8.78;6.70;;;;;;;10.39;85.53;94448.73;1726245;82;20991;-53
2021/06/01 04:14:24;;;;;;;7.97;6.65;;;;;;;10.40;85.61;94455.02;1710422;81;21094;-53
2021/06/01 04:16:51;;;;;;;7.78;7.00;;;;;;;10.44;85.79;94458.39;1726937;82;21077;-54
2021/06/01 04:19:18;;;;;;;9.33;7.28;;;;;;;10.51;86.00;94456.75;1719142;82;21000;-54
2021/06/01 04:21:44;;;;;;;8.98;7.03;;;;;;;10.55;85.63;94469.12;1718757;82;21648;-54
2021/06/01 04:24:11;;;;;;;9.98;6.47;;;;;;;10.53;85.38;94465.31;1733157;81;21007;-53
2021/06/01 04:26:38;;;;;;;8.53;6.45;;;;;;;10.51;85.54;94458.13;1719819;81;21183;-53
2021/06/01 04:29:04;;;;;;;8.40;7.03;;;;;;;10.51;85.44;94463.00;1712044;82;21086;-53
2021/06/01 04:31:31;;;;;;;12.55;6.55;;;;;;;10.50;85.55;94460.72;1725805;82;21069;-53
2021/06/01 04:33:58;;;;;;;9.90;6.58;;;;;;;10.50;85.55;94455.22;1722976;82;20978;-54
2021/06/01 04:36:25;;;;;;;7.12;6.22;;;;;;;10.53;85.66;94457.05;1715323;81;21102;-54
2021/06/01 04:38:53;;;;;;;12.98;7.58;;;;;;;10.60;85.54;94462.27;1712061;81;21064;-53
2021/06/01 04:41:19;;;;;;;7.58;6.85;;;;;;;10.65;85.46;94454.78;1728177;81;20975;-53
2021/06/01 04:43:46;;;;;;;7.58;6.67;;;;;;;10.71;85.32;94456.48;1726043;82;21462;-53
2021/06/01 04:46:12;;;;;;;8.63;5.95;;;;;;;10.78;85.00;94462.47;1726021;81;21565;-54
2021/06/01 04:48:39;;;;;;;8.55;6.47;;;;;;;10.85;85.09;94462.20;1732879;81;21488;-54
2021/06/01 04:51:16;;;;;;;10.15;7.40;;;;;;;10.91;84.85;94461.75;1721461;82;21800;-53
2021/06/01 04:53:38;;;;;;;7.62;5.40;;;;;;;11.02;85.17;94465.44;1737644;82;20998;-54
2021/06/01 04:56:05;;;;;;;10.13;7.35;;;;;;;11.14;84.73;94459.03;1717298;82;21038;-54
2021/06/01 04:58:32;;;;;;;8.68;6.50;;;;;;;11.13;84.13;94463.77;1722303;81;21074;-54
2021/06/01 05:00:58;;;;;;;8.60;7.28;;;;;;;11.13;83.93;94465.14;1734013;81;20994;-54
2021/06/01 05:03:24;;;;;;;7.92;6.95;;;;;;;11.15;83.97;94465.45;1716482;81;21193;-53
2021/06/01 05:05:51;;;;;;;10.58;8.03;;;;;;;11.20;83.60;94471.72;1741870;82;21097;-54
2021/06/01 05:08:17;;;;;;;11.25;8.78;;;;;;;11.20;83.33;94468.96;1720296;81;21240;-54
2021/06/01 05:10:44;;;;;;;13.50;8.88;;;;;;;11.13;83.42;94473.41;1720294;82;21042;-54
2021/06/01 05:13:11;;;;;;;10.48;8.50;;;;;;;11.08;83.34;94475.39;1712413;82;21042;-54
2021/06/01 05:15:38;;;;;;;8.03;7.00;;;;;;;11.05;83.42;94481.81;1720476;82;21122;-54
2021/06/01 05:18:05;;;;;;;9.08;6.60;;;;;;;11.04;83.26;94476.75;1726384;81;21043;-55
2021/06/01 05:20:31;;;;;;;7.72;6.92;;;;;;;11.00;83.41;94467.88;1737386;81;21042;-53
2021/06/01 05:22:58;;;;;;;7.55;6.78;;;;;;;10.97;83.54;94472.30;1725452;81;21122;-54
2021/06/01 05:25:24;;;;;;;10.10;6.30;;;;;;;10.92;83.73;94476.25;1690247;82;21038;-56
2021/06/01 05:27:52;;;;;;;9.25;6.00;;;;;;;10.90;83.92;94472.60;1712234;82;21030;-54
2021/06/01 05:30:29;;;;;;;6.42;5.83;;;;;;;10.94;84.13;94473.81;1735537;82;20975;-54
2021/06/01 05:33:33;;;;;;;7.08;6.37;;;;;;;11.01;84.11;94477.66;1696366;82;21031;-53
2021/06/01 05:35:25;;;;;;;6.95;6.35;;;;;;;11.11;84.44;94473.09;1697203;82;21621;-54
2021/06/01 05:37:50;;;;;;;7.58;5.62;;;;;;;11.21;83.89;94484.26;1725640;82;21106;-53
2021/06/01 05:40:17;;;;;;;9.78;6.92;;;;;;;11.19;83.23;94475.69;1698034;82;21172;-54
2021/06/01 05:42:43;;;;;;;10.45;8.93;;;;;;;11.11;82.88;94484.70;1725080;81;21045;-54
2021/06/01 05:45:13;;;;;;;9.53;8.63;;;;;;;10.98;83.07;94479.96;1771685;78;21055;-53
2021/06/01 05:47:39;;;;;;;9.43;7.97;;;;;;;10.94;83.43;94477.94;1761617;79;22222;-53
2021/06/01 05:50:07;;;;;;;7.33;6.10;;;;;;;10.88;83.68;94477.02;1774897;78;20965;-53
2021/06/01 05:52:35;;;;;;;8.40;6.60;;;;;;;10.85;84.08;94482.84;1787248;78;21583;-53
2021/06/01 05:55:04;;;;;;;9.55;6.22;;;;;;;10.88;84.07;94481.92;1767828;78;21076;-56
2021/06/01 05:57:30;;;;;;;8.35;7.50;;;;;;;10.92;84.03;94485.30;1771100;78;21046;-54
2021/06/01 05:59:57;;;;;;;7.67;6.87;;;;;;;10.97;84.19;94481.18;1763216;78;21167;-57
2021/06/01 06:02:24;;;;;;;5.85;5.35;;;;;;;11.05;84.09;94488.69;1703687;81;21135;-56
2021/06/01 06:04:51;;;;;;;6.30;5.70;;;;;;;11.10;83.92;94490.84;1715706;81;21775;-53
2021/06/01 06:07:18;;;;;;;7.95;6.72;;;;;;;11.14;83.39;94488.70;1699871;81;21069;-56
2021/06/01 06:09:45;;;;;;;6.58;5.95;;;;;;;11.19;83.00;94492.84;1704782;81;21055;-57
2021/06/01 06:12:12;;;;;;;11.03;9.05;;;;;;;11.24;82.57;94487.50;1703678;81;21114;-54
2021/06/01 06:14:40;;;;;;;10.00;6.10;;;;;;;11.25;82.54;94489.03;1717947;81;21119;-55
2021/06/01 06:17:10;;;;;;;6.08;5.12;;;;;;;11.27;82.85;94495.44;1702655;81;21773;-52
2021/06/01 06:19:43;;;;;;;7.28;6.58;;;;;;;11.30;82.70;94488.41;1685385;82;21113;-55
2021/06/01 06:22:06;;;;;;;8.20;6.05;;;;;;;11.31;82.02;94485.06;1730728;80;21908;-53
2021/06/01 06:24:32;;;;;;;13.32;8.78;;;;;;;11.34;82.12;94486.89;1735255;80;21127;-58
2021/06/01 06:26:59;;;;;;;10.55;8.98;;;;;;;11.32;82.01;94488.72;1721717;80;21131;-52
2021/06/01 06:29:27;;;;;;;8.93;7.53;;;;;;;11.25;82.11;94486.88;1777776;79;22460;-51
2021/06/01 06:31:54;;;;;;;12.90;9.05;;;;;;;11.25;82.04;94490.41;1764957;78;21165;-51
2021/06/01 06:34:20;;;;;;;9.18;6.12;;;;;;;11.36;81.94;94487.20;1691154;81;21603;-55
2021/06/01 06:36:48;;;;;;;11.63;6.40;;;;;;;11.46;81.72;94488.13;1751076;79;21133;-54
2021/06/01 06:39:15;;;;;;;13.65;8.05;;;;;;;11.46;81.60;94489.50;1768525;78;21292;-52
2021/06/01 06:41:41;;;;;;;18.85;12.33;;;;;;;11.49;81.93;94477.56;1779413;78;22036;-52
2021/06/01 06:44:11;;;;;;;14.53;9.78;;;;;;;11.56;81.43;94479.28;1781577;78;21077;-52
2021/06/01 06:46:42;;;;;;;10.18;6.55;;;;;;;11.60;81.13;94477.91;1773125;78;21667;-53
2021/06/01 06:49:10;;;;;;;7.75;6.95;;;;;;;11.61;80.57;94479.44;1766973;78;21084;-52
2021/06/01 06:51:39;;;;;;;33.85;23.38;;;;;;;11.62;80.26;94482.94;1767875;78;21083;-52
2021/06/01 06:54:06;;;;;;;7.97;7.10;;;;;;;11.66;80.53;94478.81;1701645;81;21683;-53
2021/06/01 06:56:33;;;;;;;12.37;10.38;;;;;;;11.75;79.87;94484.93;1715349;82;21067;-51
2021/06/01 06:59:01;;;;;;;4.65;4.25;;;;;;;11.79;79.14;94490.45;1761002;78;21028;-52
2021/06/01 07:01:28;;;;;;;4.25;3.90;;;;;;;11.79;78.33;94484.94;1770347;79;21148;-52
2021/06/01 07:03:56;;;;;;;3.37;3.17;;;;;;;11.80;77.72;94483.71;1758708;79;20997;-52
2021/06/01 07:06:23;;;;;;;3.62;3.40;;;;;;;11.84;77.30;94492.58;1778855;79;21967;-54
2021/06/01 07:08:52;;;;;;;5.05;3.27;;;;;;;11.83;77.61;94492.43;1763899;78;21118;-56
2021/06/01 07:11:19;;;;;;;4.50;3.77;;;;;;;11.88;78.04;94492.43;1775294;79;21060;-56
2021/06/01 07:13:56;;;;;;;6.08;4.47;;;;;;;11.95;77.98;94487.97;1775937;77;21045;-55
2021/06/01 07:16:25;;;;;;;5.87;4.83;;;;;;;11.98;78.79;94494.71;1757366;79;21044;-59
2021/06/01 07:18:52;;;;;;;7.75;5.85;;;;;;;12.03;79.41;94496.84;1760194;79;22203;-51
2021/06/01 07:21:21;;;;;;;7.65;5.50;;;;;;;12.13;78.52;94494.23;1764907;79;20995;-57
2021/06/01 07:23:48;;;;;;;7.10;5.15;;;;;;;12.26;77.86;94496.17;1732176;79;21036;-53
2021/06/01 07:26:15;;;;;;;9.28;6.17;;;;;;;12.40;77.23;94502.42;1760909;80;21691;-54
2021/06/01 07:28:42;;;;;;;10.88;6.87;;;;;;;12.49;77.19;94496.11;1755340;79;21581;-56
2021/06/01 07:31:16;;;;;;;9.85;5.95;;;;;;;12.61;76.78;94505.58;1759928;78;21119;-58
2021/06/01 07:33:43;;;;;;;10.55;7.83;;;;;;;12.68;76.74;94506.64;1758495;79;21104;-61
2021/06/01 07:36:14;;;;;;;11.93;7.35;;;;;;;12.73;76.03;94503.23;1739741;78;21875;-57
2021/06/01 07:38:44;;;;;;;8.13;5.62;;;;;;;12.75;76.31;94509.05;1760103;79;21077;-58
2021/06/01 07:41:13;;;;;;;5.72;5.10;;;;;;;12.86;75.97;94503.80;1766996;79;21555;-58
2021/06/01 07:43:39;;;;;;;8.18;5.58;;;;;;;12.98;75.18;94503.61;1766046;78;22682;-53
2021/06/01 07:46:07;;;;;;;7.87;5.28;;;;;;;13.05;75.21;94506.65;1761809;78;21078;-51
2021/06/01 07:48:37;;;;;;;6.95;6.22;;;;;;;13.10;74.90;94504.62;1780690;78;21115;-53
2021/06/01 07:51:10;;;;;;;7.05;5.60;;;;;;;13.08;73.87;94512.61;1759161;79;21059;-59
2021/06/01 07:53:35;;;;;;;6.62;5.92;;;;;;;13.03;74.04;94515.99;1758483;79;21151;-53
2021/06/01 07:56:01;;;;;;;8.58;5.97;;;;;;;13.02;73.81;94517.22;1778779;78;21051;-54
2021/06/01 07:58:28;;;;;;;8.30;5.95;;;;;;;13.07;73.77;94517.36;1787600;78;21046;-57
2021/06/01 08:00:54;;;;;;;10.82;9.35;;;;;;;13.08;74.12;94518.14;1767359;79;21688;-54
2021/06/01 08:03:21;;;;;;;8.83;6.92;;;;;;;13.12;74.92;94515.33;1753454;80;21041;-55
2021/06/01 08:05:47;;;;;;;13.22;10.10;;;;;;;13.23;74.33;94518.98;1761978;78;21111;-54
2021/06/01 08:08:13;;;;;;;9.38;7.95;;;;;;;13.36;73.60;94516.13;1772869;79;21174;-53
2021/06/01 08:10:42;;;;;;;8.38;6.58;;;;;;;13.52;72.90;94510.19;1761541;79;22141;-57
2021/06/01 08:13:08;;;;;;;11.53;8.00;;;;;;;13.70;72.20;94506.52;1788655;79;21043;-54
2021/06/01 08:15:35;;;;;;;9.13;6.45;;;;;;;13.79;71.66;94508.59;1770704;79;21656;-55
2021/06/01 08:18:03;;;;;;;10.70;7.40;;;;;;;13.70;69.91;94507.89;1766655;78;21561;-52
2021/06/01 08:20:44;;;;;;;12.93;8.40;;;;;;;13.63;70.37;94508.27;1765890;78;21559;-52
2021/06/01 08:23:05;;;;;;;15.25;7.70;;;;;;;13.57;70.46;94517.05;1753782;79;21148;-54
2021/06/01 08:25:33;;;;;;;11.10;8.50;;;;;;;13.47;70.81;94516.98;1768305;78;21612;-55
2021/06/01 08:28:00;;;;;;;15.18;10.38;;;;;;;13.41;71.89;94521.00;1749159;79;21070;-55
2021/06/01 08:30:30;;;;;;;9.83;7.22;;;;;;;13.34;72.96;94519.20;1777473;78;21210;-52
2021/06/01 08:32:57;;;;;;;11.28;8.15;;;;;;;13.22;72.98;94519.58;1759109;79;22021;-57
2021/06/01 08:35:24;;;;;;;11.55;9.60;;;;;;;13.07;73.10;94526.27;1759712;79;20992;-53
2021/06/01 08:37:51;;;;;;;9.13;8.23;;;;;;;12.82;73.90;94532.17;1768485;79;21523;-54
2021/06/01 08:40:18;;;;;;;6.65;5.62;;;;;;;12.59;74.42;94546.67;1779035;79;21166;-55
2021/06/01 08:42:45;;;;;;;6.37;4.92;;;;;;;12.31;74.68;94550.73;1731855;80;21115;-52
2021/06/01 08:45:13;;;;;;;7.10;5.60;;;;;;;12.18;74.96;94548.76;1768424;78;22276;-52
2021/06/01 08:47:39;;;;;;;5.87;5.08;;;;;;;12.07;75.57;94552.59;1763879;80;21135;-54
2021/06/01 08:50:08;;;;;;;9.10;5.78;;;;;;;12.02;75.92;94553.21;1699151;82;21140;-55
2021/06/01 08:52:36;;;;;;;4.92;4.53;;;;;;;12.06;76.19;94549.68;1712107;80;21140;-54
2021/06/01 08:55:05;;;;;;;4.50;4.10;;;;;;;12.09;76.06;94559.03;1779054;78;21158;-55
2021/06/01 08:57:34;;;;;;;3.90;3.60;;;;;;;12.15;75.81;94564.08;1764518;79;21078;-53
2021/06/01 09:00:04;;;;;;;3.70;3.40;;;;;;;12.22;75.78;94557.63;1773832;78;21001;-52
2021/06/01 09:02:31;;;;;;;4.35;3.95;;;;;;;12.26;75.49;94560.99;1760610;79;21047;-53
2021/06/01 09:04:59;;;;;;;3.75;3.52;;;;;;;12.24;75.49;94559.94;1781186;79;21527;-55
2021/06/01 09:07:36;;;;;;;4.40;4.00;;;;;;;12.25;75.30;94558.71;1709838;82;21516;-55
2021/06/01 09:10:24;;;;;;;11.25;4.80;;;;;;;12.26;75.05;94562.38;1762495;79;21177;-52
2021/06/01 09:21:36;;;;;;;8.30;5.78;;;;;;;12.90;76.39;94555.47;1773223;78;21032;-55
2021/06/01 09:24:05;;;;;;;6.12;5.00;;;;;;;13.26;75.59;94553.95;1783946;79;21172;-55
2021/06/01 09:27:02;;;;;;;6.37;5.70;;;;;;;13.60;73.31;94556.20;1697752;82;21056;-57
2021/06/01 09:29:29;;;;;;;5.80;4.70;;;;;;;13.85;71.50;94555.71;1729950;82;21079;-55
2021/06/01 09:32:17;;;;;;;6.90;4.05;;;;;;;14.06;69.60;94550.47;1698591;81;21060;-55
2021/06/01 09:34:49;;;;;;;4.37;3.98;;;;;;;14.20;69.69;94551.91;1702045;81;21050;-57
2021/06/01 09:37:28;;;;;;;4.67;3.92;;;;;;;14.33;69.61;94547.50;1716417;82;21288;-56
2021/06/01 09:40:18;;;;;;;4.75;4.20;;;;;;;14.38;67.38;94546.83;1771927;79;21688;-54
2021/06/01 09:42:48;;;;;;;5.00;4.55;;;;;;;14.44;67.72;94550.59;1762873;79;21968;-55
2021/06/01 09:45:22;;;;;;;5.05;4.20;;;;;;;14.62;68.90;94542.11;1777214;78;21116;-59
2021/06/01 09:47:55;;;;;;;4.67;4.05;;;;;;;14.82;68.14;94539.42;1755804;79;21595;-57
2021/06/01 09:53:06;;;;;;;4.67;3.65;;;;;;;15.12;65.65;94535.98;1769670;79;21003;-62
2021/06/01 09:55:41;;;;;;;3.65;3.33;;;;;;;15.13;65.10;94543.05;1768164;79;21091;-60
2021/06/01 09:58:13;;;;;;;3.92;3.45;;;;;;;15.09;65.18;94544.65;1772462;78;21167;-57
2021/06/01 10:00:41;;;;;;;7.30;5.60;;;;;;;15.04;65.15;94541.78;1796385;79;21087;-57
2021/06/01 10:03:20;;;;;;;3.40;3.10;;;;;;;15.00;65.07;94542.61;1765990;79;21135;-56
2021/06/01 10:05:50;;;;;;;4.35;3.72;;;;;;;14.87;64.87;94537.98;1762702;79;21107;-55
2021/06/01 10:08:21;;;;;;;3.50;3.20;;;;;;;14.76;65.94;94539.18;1776366;78;21621;-54
2021/06/01 10:11:03;;;;;;;7.45;2.60;;;;;;;14.74;64.06;94531.37;1772049;79;21212;-57
2021/06/01 10:13:35;;;;;;;3.27;2.98;;;;;;;14.85;61.49;94537.07;1754536;80;21606;-56
2021/06/01 10:16:10;;;;;;;4.75;3.10;;;;;;;14.98;63.07;94538.92;1769651;80;21110;-55
2021/06/01 10:18:40;;;;;;;5.67;2.90;;;;;;;15.11;62.92;94537.22;1775494;80;21566;-56
2021/06/01 10:21:21;;;;;;;5.60;4.35;;;;;;;15.20;61.49;94542.66;1774755;79;21667;-54
2021/06/01 10:23:50;;;;;;;3.67;2.92;;;;;;;15.18;61.56;94543.14;1753964;80;21028;-54
2021/06/01 10:26:16;;;;;;;3.67;3.10;;;;;;;15.17;61.85;94547.79;1755366;80;21095;-56
2021/06/01 10:28:47;;;;;;;3.70;3.30;;;;;;;15.00;60.41;94555.08;1768832;79;21118;-56
2021/06/01 10:31:16;;;;;;;3.25;2.95;;;;;;;14.67;61.15;94560.81;1766001;80;21047;-55
2021/06/01 10:33:54;;;;;;;3.12;2.92;;;;;;;14.26;61.96;94568.61;1765119;80;21122;-54
2021/06/01 10:51:03;;;;;;;3.10;2.90;;;;;;;12.38;65.60;94576.61;1783552;79;21044;-57
2021/06/01 10:53:39;;;;;;;2.80;2.60;;;;;;;12.33;66.27;94570.34;1777383;80;21126;-54
2021/06/01 10:56:08;;;;;;;4.10;3.70;;;;;;;12.41;68.14;94574.94;1773667;79;21211;-52
2021/06/01 10:58:43;;;;;;;4.35;3.42;;;;;;;12.52;67.16;94570.46;1775775;79;21083;-58
2021/06/01 11:01:58;;;;;;;4.12;3.60;;;;;;;12.66;67.45;94567.03;1774562;79;21161;-56
2021/06/01 11:04:26;;;;;;;4.47;3.80;;;;;;;12.75;67.98;94565.01;1757931;78;21057;-55
2021/06/01 11:09:41;;;;;;;5.08;4.58;;;;;;;13.07;67.39;94580.13;1772479;78;21218;-58
2021/06/01 11:12:29;;;;;;;5.95;3.80;;;;;;;13.14;67.21;94586.09;1762545;79;21619;-53
2021/06/01 11:14:57;;;;;;;3.50;3.20;;;;;;;13.14;67.64;94589.45;1764684;79;21142;-60
2021/06/01 11:17:42;;;;;;;5.80;3.45;;;;;;;13.00;67.41;94587.35;1710352;82;21078;-66
2021/06/01 11:20:17;;;;;;;8.93;3.92;;;;;;;12.84;67.86;94584.92;1716459;81;21576;-66
2021/06/01 11:33:41;;;;;;;4.40;3.70;;;;;;;12.92;66.88;94584.75;1775864;78;21087;-55
2021/06/01 11:36:15;;;;;;;4.75;4.22;;;;;;;12.91;66.94;94577.70;1798901;78;20975;-54
2021/06/01 11:39:01;;;;;;;4.62;4.05;;;;;;;12.87;67.68;94580.63;1750262;80;21686;-60
2021/06/01 11:44:23;;;;;;;9.45;4.17;;;;;;;12.87;66.12;94575.73;1747821;80;21051;-51
2021/06/01 11:46:59;;;;;;;9.43;5.75;;;;;;;12.92;64.71;94573.71;1772423;79;21099;-53
2021/06/01 11:52:11;;;;;;;7.75;4.37;;;;;;;13.13;65.86;94567.20;1770338;78;21543;-54
2021/06/01 11:54:37;;;;;;;7.37;4.80;;;;;;;13.23;66.06;94570.08;1756471;79;21648;-56
2021/06/01 11:57:11;;;;;;;8.98;5.35;;;;;;;13.30;66.18;94573.24;1770504;78;21049;-56
2021/06/01 12:11:13;;;;;;;6.62;4.85;;;;;;;13.45;63.29;94556.75;1764341;79;21101;-57
2021/06/01 12:18:37;;;;;;;4.25;3.58;;;;;;;13.68;62.64;94560.13;1768027;78;21077;-60
2021/06/01 12:21:20;;;;;;;6.62;4.12;;;;;;;13.76;62.15;94557.92;1773968;79;21044;-58
2021/06/01 12:24:10;;;;;;;6.47;5.17;;;;;;;13.84;62.16;94553.55;1693263;81;21022;-58
2021/06/01 12:32:29;;;;;;;4.22;3.05;;;;;;;14.22;60.73;94544.52;1693376;81;21024;-57
2021/06/01 12:46:06;;;;;;;9.58;6.65;;;;;;;14.21;59.36;94541.61;1694296;82;21390;-59
2021/06/01 13:39:57;;;;;;;10.68;4.90;;;;;;;12.97;63.55;94548.25;1703449;81;21185;-58
2021/06/01 13:48:23;;;;;;;6.75;4.83;;;;;;;13.02;63.75;94552.52;1739290;80;21010;-55
2021/06/01 13:50:29;;;;;;;8.35;6.35;;;;;;;13.08;63.71;94554.04;1776435;78;21112;-57
2021/06/01 13:55:42;;;;;;;8.58;5.15;;;;;;;13.01;63.62;94556.52;1756709;79;21255;-55
2021/06/01 13:58:29;;;;;;;6.47;4.22;;;;;;;12.97;64.46;94556.53;1766564;78;21689;-54
2021/06/01 14:19:34;;;;;;;11.38;7.83;;;;;;;12.75;68.78;94567.02;1753659;79;21685;-57
2021/06/01 14:30:38;;;;;;;16.10;8.03;;;;;;;12.68;71.37;94561.20;1731397;80;21531;-57
2021/06/01 14:39:17;;;;;;;28.15;15.95;;;;;;;12.63;70.55;94561.06;1763893;78;21075;-55
2021/06/01 15:49:43;;;;;;;27.55;18.62;;;;;;;12.26;75.83;94584.44;1760521;81;21168;-55
2021/06/01 16:11:37;;;;;;;25.10;14.63;;;;;;;12.00;77.43;94595.64;1747764;82;20945;-55
2021/06/01 16:30:44;;;;;;;16.50;11.22;;;;;;;12.28;76.98;94597.15;1697008;83;21164;-56